Time;durP1;ratioP1;P1;durP2;ratioP2;P2;SDS_P1;SDS_P2;PMS_P1;PMS_P2;Temp;Humidity;BMP_temperature;BMP_pressure;BME280_temperature;BME280_humidity;BME280_pressure;Samples;Min_cycle;Max_cycle;Signal;HPM_P1;HPM_P2
2022/04/25 00:00:44;;;;;;;24.13;6.28;;;;;;;7.68;100.00;95107.59;5044147;28;20056;-76
2022/04/25 00:03:11;;;;;;;52.38;8.02;;;;;;;7.69;100.00;95109.97;5043441;28;20052;-75
2022/04/25 00:05:39;;;;;;;65.93;18.00;;;;;;;7.68;100.00;95113.00;5044169;28;20048;-76
2022/04/25 00:08:05;;;;;;;69.28;8.80;;;;;;;7.66;100.00;95109.81;5042868;28;20075;-76
2022/04/25 00:10:32;;;;;;;33.83;7.60;;;;;;;7.56;100.00;95105.56;5044515;28;20064;-76
2022/04/25 00:12:59;;;;;;;31.83;6.80;;;;;;;7.69;100.00;95104.53;5043565;28;20056;-76
2022/04/25 00:15:27;;;;;;;34.10;7.35;;;;;;;7.64;100.00;95106.66;5044390;28;20527;-76
2022/04/25 00:17:53;;;;;;;39.13;7.50;;;;;;;7.69;100.00;95106.47;5043842;28;20068;-76
2022/04/25 00:20:20;;;;;;;44.75;6.82;;;;;;;7.67;100.00;95111.41;5045383;28;20045;-76
2022/04/25 00:22:48;;;;;;;38.88;6.90;;;;;;;7.72;100.00;95108.50;5048329;28;20049;-76
2022/04/25 00:25:14;;;;;;;36.53;7.70;;;;;;;7.71;100.00;95101.50;5047262;28;20048;-76
2022/04/25 00:27:41;;;;;;;22.35;5.35;;;;;;;7.67;100.00;95114.91;5048653;28;20285;-76
2022/04/25 00:30:09;;;;;;;49.03;7.65;;;;;;;7.71;100.00;95109.63;5047202;28;20069;-76
2022/04/25 00:32:35;;;;;;;11.63;5.55;;;;;;;7.74;100.00;95114.41;5048929;28;20045;-76
2022/04/25 00:35:03;;;;;;;39.53;6.32;;;;;;;7.79;100.00;95114.19;5046936;28;20048;-77
2022/04/25 00:37:29;;;;;;;40.90;6.60;;;;;;;7.70;100.00;95116.97;5048414;28;20055;-76
2022/04/25 00:39:57;;;;;;;8.00;5.32;;;;;;;7.75;100.00;95113.25;5047800;28;20056;-76
2022/04/25 00:42:26;;;;;;;32.15;5.38;;;;;;;7.72;100.00;95119.34;5049664;28;20041;-76
2022/04/25 00:44:52;;;;;;;40.92;5.95;;;;;;;7.80;100.00;95118.50;5054075;28;20057;-76
2022/04/25 00:47:20;;;;;;;44.95;6.25;;;;;;;7.89;100.00;95118.44;5048623;28;20053;-76
2022/04/25 00:49:46;;;;;;;46.03;6.05;;;;;;;7.82;100.00;95119.72;5047613;28;20534;-76
2022/04/25 00:52:13;;;;;;;39.75;6.18;;;;;;;7.89;100.00;95121.94;5046833;28;20696;-76
2022/04/25 00:54:41;;;;;;;60.35;6.15;;;;;;;7.83;100.00;95121.34;5048110;28;20048;-75
2022/04/25 00:57:10;;;;;;;48.25;6.38;;;;;;;7.92;100.00;95115.84;5046625;28;20118;-76
2022/04/25 00:59:37;;;;;;;35.38;5.10;;;;;;;7.94;100.00;95115.53;5048156;28;20056;-76
2022/04/25 01:02:04;;;;;;;33.00;5.45;;;;;;;7.96;100.00;95116.78;5046381;28;20048;-76
2022/04/25 01:04:31;;;;;;;50.25;6.97;;;;;;;7.99;100.00;95112.63;5047505;28;20052;-76
2022/04/25 01:06:58;;;;;;;29.27;4.85;;;;;;;7.99;100.00;95115.34;5046778;28;20132;-75
2022/04/25 01:09:25;;;;;;;43.35;5.82;;;;;;;8.05;100.00;95117.50;5046980;28;20053;-76
2022/04/25 01:11:52;;;;;;;11.57;4.60;;;;;;;7.86;100.00;95117.16;5047252;28;20080;-76
2022/04/25 01:14:21;;;;;;;42.58;6.65;;;;;;;7.93;100.00;95112.00;5046410;28;20053;-76
2022/04/25 01:16:48;;;;;;;20.38;5.40;;;;;;;8.00;100.00;95120.41;5040245;28;20050;-76
2022/04/25 01:19:15;;;;;;;45.50;6.45;;;;;;;8.09;100.00;95117.59;5027534;28;20045;-76
2022/04/25 01:21:44;;;;;;;36.92;5.45;;;;;;;8.06;99.45;95121.78;5029292;28;20045;-76
2022/04/25 01:29:41;;;;;;;43.65;5.95;;;;;;;8.20;99.32;95120.75;5028042;28;20083;-75
2022/04/25 01:32:08;;;;;;;36.50;6.13;;;;;;;8.14;99.15;95130.19;5025951;28;20049;-75
2022/04/25 01:34:37;;;;;;;34.15;5.43;;;;;;;8.20;99.18;95134.28;5027442;28;20072;-76
2022/04/25 01:37:06;;;;;;;39.40;5.38;;;;;;;8.34;98.75;95126.66;5026050;28;20585;-76
2022/04/25 01:39:35;;;;;;;22.77;4.05;;;;;;;8.41;98.00;95126.16;5027669;28;20057;-76
2022/04/25 01:42:02;;;;;;;34.38;5.00;;;;;;;8.43;97.52;95121.97;5026002;28;20056;-77
2022/04/25 01:44:29;;;;;;;28.75;5.47;;;;;;;8.43;97.26;95127.41;5027091;28;20080;-76
2022/04/25 01:46:56;;;;;;;39.67;5.60;;;;;;;8.35;97.08;95122.81;5025008;28;20072;-75
2022/04/25 01:49:22;;;;;;;26.25;5.32;;;;;;;8.31;97.42;95125.41;5026221;28;20050;-76
2022/04/25 01:51:49;;;;;;;35.15;4.78;;;;;;;8.30;96.90;95129.25;5023856;28;20064;-75
2022/04/25 01:54:21;;;;;;;62.88;6.45;;;;;;;8.28;97.06;95126.06;5025811;28;20049;-75
2022/04/25 01:56:49;;;;;;;64.50;13.40;;;;;;;8.15;97.77;95129.88;5026676;28;20508;-76
2022/04/25 01:59:15;;;;;;;117.53;30.17;;;;;;;8.11;97.53;95128.94;5025096;28;20057;-76
2022/04/25 02:01:43;;;;;;;40.33;5.43;;;;;;;8.07;98.05;95120.66;5026945;28;20052;-76
2022/04/25 02:04:09;;;;;;;98.70;26.73;;;;;;;8.10;98.52;95133.56;5025251;28;20047;-75
2022/04/25 02:06:36;;;;;;;53.67;9.45;;;;;;;7.98;98.90;95138.91;5026772;28;20049;-76
2022/04/25 02:09:02;;;;;;;48.97;8.73;;;;;;;7.99;99.01;95134.31;5025421;28;20060;-77
2022/04/25 02:11:31;;;;;;;71.82;19.73;;;;;;;8.06;98.08;95138.06;5026129;28;20049;-76
2022/04/25 02:13:59;;;;;;;52.47;6.30;;;;;;;7.91;98.96;95141.38;5026024;28;20516;-76
2022/04/25 02:16:26;;;;;;;47.03;6.72;;;;;;;7.91;99.88;95135.16;5024942;28;20049;-76
2022/04/25 02:18:54;;;;;;;68.10;12.20;;;;;;;7.89;99.83;95140.91;5025984;28;20050;-75
2022/04/25 02:21:21;;;;;;;88.90;18.23;;;;;;;7.81;100.00;95129.00;5024965;28;20752;-76
2022/04/25 02:23:48;;;;;;;38.88;6.07;;;;;;;7.91;100.00;95141.38;5026447;28;20115;-76
2022/04/25 02:26:14;;;;;;;40.88;6.07;;;;;;;7.90;100.00;95145.19;5024927;28;20371;-75
2022/04/25 02:28:41;;;;;;;52.55;7.13;;;;;;;7.98;100.00;95138.91;5026400;28;20049;-76
2022/04/25 02:31:09;;;;;;;53.65;7.13;;;;;;;7.99;99.83;95134.31;5024900;28;20049;-75
2022/04/25 02:33:37;;;;;;;49.50;7.05;;;;;;;8.13;99.68;95142.16;5026130;28;20057;-76
2022/04/25 02:36:05;;;;;;;46.63;7.22;;;;;;;8.16;98.87;95136.06;5025593;28;20570;-75
2022/04/25 02:38:33;;;;;;;59.75;8.20;;;;;;;7.94;99.51;95140.72;5026318;28;20052;-75
2022/04/25 02:41:05;;;;;;;32.97;7.43;;;;;;;7.95;99.82;95150.44;5028492;28;20519;-76
2022/04/25 02:43:34;;;;;;;29.27;6.50;;;;;;;7.93;99.72;95141.81;5028253;28;20053;-76
2022/04/25 02:46:01;;;;;;;36.42;6.22;;;;;;;7.97;99.89;95142.75;5033716;28;20041;-76
2022/04/25 02:48:29;;;;;;;52.85;8.23;;;;;;;7.97;98.99;95148.16;5046423;28;20044;-75
2022/04/25 02:50:56;;;;;;;51.80;8.05;;;;;;;7.92;99.36;95148.38;5046785;28;20060;-76
2022/04/25 02:53:24;;;;;;;49.47;7.88;;;;;;;7.93;99.02;95147.22;5045430;28;20055;-76
2022/04/25 02:55:51;;;;;;;8.55;5.55;;;;;;;8.02;98.98;95156.09;5045396;28;20704;-76
2022/04/25 02:58:17;;;;;;;26.88;6.53;;;;;;;7.96;98.97;95154.72;5044476;28;20059;-75
2022/04/25 03:00:46;;;;;;;106.10;27.27;;;;;;;7.93;98.74;95162.72;5044795;28;20487;-76
2022/04/25 03:03:13;;;;;;;55.58;8.60;;;;;;;8.01;98.52;95154.53;5045163;28;20554;-76
2022/04/25 03:05:42;;;;;;;54.13;8.43;;;;;;;8.01;98.42;95143.69;5037416;28;20095;-76
2022/04/25 03:08:09;;;;;;;50.17;10.95;;;;;;;8.09;98.26;95153.69;5038587;28;20047;-76
2022/04/25 03:10:36;;;;;;;28.77;7.32;;;;;;;8.05;97.56;95154.66;5044260;28;20082;-76
2022/04/25 03:13:03;;;;;;;39.53;8.05;;;;;;;7.98;98.11;95170.66;5045360;28;20140;-76
2022/04/25 03:15:30;;;;;;;39.83;8.23;;;;;;;8.01;97.83;95167.28;5044380;28;20051;-76
2022/04/25 03:17:56;;;;;;;46.83;9.05;;;;;;;8.02;97.76;95168.88;5044301;28;20049;-75
2022/04/25 03:20:23;;;;;;;42.47;7.80;;;;;;;8.08;97.57;95162.91;5043949;28;20127;-76
2022/04/25 03:22:51;;;;;;;27.23;6.78;;;;;;;8.20;97.04;95161.41;5045406;28;20056;-76
2022/04/25 03:25:17;;;;;;;538.83;200.02;;;;;;;8.14;96.74;95162.72;5044820;28;20049;-76
2022/04/25 03:27:44;;;;;;;279.63;86.57;;;;;;;8.22;96.71;95165.38;5044516;28;20044;-75
2022/04/25 03:30:11;;;;;;;552.00;210.82;;;;;;;8.16;96.74;95165.91;5044583;28;20045;-76
2022/04/25 03:32:37;;;;;;;589.58;198.45;;;;;;;8.13;96.84;95166.56;5044235;28;20297;-76
2022/04/25 03:35:04;;;;;;;540.30;177.07;;;;;;;8.06;97.16;95165.16;5044733;28;20626;-76
2022/04/25 03:37:31;;;;;;;571.63;182.98;;;;;;;8.04;97.59;95170.16;5044255;28;20056;-76
2022/04/25 03:40:00;;;;;;;60.10;9.80;;;;;;;8.11;97.26;95175.81;5044813;28;20061;-76
2022/04/25 03:42:26;;;;;;;11.10;7.47;;;;;;;8.07;96.80;95174.09;5043921;28;20048;-76
2022/04/25 03:44:54;;;;;;;10.63;7.03;;;;;;;8.20;97.23;95172.25;5043490;28;20084;-76
2022/04/25 03:47:20;;;;;;;11.82;6.85;;;;;;;8.14;96.89;95182.47;5044713;28;20127;-76
2022/04/25 03:49:47;;;;;;;9.88;6.82;;;;;;;8.08;97.29;95190.03;5044329;28;20049;-75
2022/04/25 03:52:13;;;;;;;13.45;8.13;;;;;;;7.94;97.86;95186.00;5044228;28;20041;-76
2022/04/25 03:57:25;;;;;;;13.75;7.82;;;;;;;8.00;98.85;95190.91;5048918;28;20453;-75
2022/04/25 03:59:52;;;;;;;11.15;8.00;;;;;;;7.82;99.38;95189.41;5047901;28;20048;-76
2022/04/25 04:02:18;;;;;;;12.00;7.55;;;;;;;7.96;99.50;95192.66;5048352;28;20061;-76
2022/04/25 04:04:44;;;;;;;12.63;8.20;;;;;;;8.02;99.05;95191.34;5036003;28;20057;-76
2022/04/25 04:07:11;;;;;;;12.77;8.23;;;;;;;7.89;99.55;95200.53;5047783;28;20428;-76
2022/04/25 04:09:47;;;;;;;11.93;7.70;;;;;;;8.03;99.34;95201.06;5048056;28;20047;-76
2022/04/25 04:12:14;;;;;;;13.85;8.63;;;;;;;8.04;99.51;95205.38;5047751;28;20122;-77
2022/04/25 04:14:43;;;;;;;13.98;8.90;;;;;;;7.94;99.26;95202.28;5047846;28;20060;-76
2022/04/25 04:17:09;;;;;;;12.57;8.55;;;;;;;8.07;99.31;95206.63;5047075;28;20045;-76
2022/04/25 04:19:37;;;;;;;17.05;8.93;;;;;;;8.06;99.23;95215.88;5048328;28;20056;-76
2022/04/25 04:22:04;;;;;;;13.07;8.40;;;;;;;7.96;99.06;95216.28;5046533;28;20091;-77
2022/04/25 04:24:32;;;;;;;14.65;9.32;;;;;;;7.97;99.05;95215.94;5048297;28;20052;-76
2022/04/25 04:27:01;;;;;;;15.20;8.57;;;;;;;7.94;98.74;95224.75;5045446;28;20077;-76
2022/04/25 04:29:29;;;;;;;14.45;9.93;;;;;;;8.00;98.88;95223.44;5047519;28;20403;-78
2022/04/25 04:31:57;;;;;;;14.60;9.25;;;;;;;7.93;98.63;95228.56;5047758;28;20061;-76
2022/04/25 04:34:24;;;;;;;13.68;9.00;;;;;;;7.91;98.96;95235.44;5046959;28;20049;-76
2022/04/25 04:36:51;;;;;;;12.55;8.65;;;;;;;8.06;99.69;95254.63;5048585;28;20914;-76
2022/04/25 04:39:17;;;;;;;17.63;10.40;;;;;;;8.22;99.25;95262.19;5046758;28;20049;-76
2022/04/25 04:41:44;;;;;;;15.73;10.10;;;;;;;8.27;98.66;95253.88;5048490;28;20061;-76
2022/04/25 04:44:10;;;;;;;17.58;9.80;;;;;;;8.24;96.72;95259.94;5049523;28;20041;-76
2022/04/25 04:46:37;;;;;;;14.93;9.55;;;;;;;8.20;95.44;95267.19;5053781;28;20056;-76
2022/04/25 04:49:05;;;;;;;13.65;8.65;;;;;;;8.20;94.88;95269.88;5050063;28;20049;-76
2022/04/25 04:51:31;;;;;;;16.50;9.63;;;;;;;8.14;95.46;95271.16;5048023;28;20045;-76
2022/04/25 04:53:59;;;;;;;14.25;8.93;;;;;;;8.16;95.58;95274.38;5047869;28;20053;-77
2022/04/25 04:56:26;;;;;;;15.43;9.57;;;;;;;8.22;95.65;95283.91;5047287;28;20048;-76
2022/04/25 04:58:53;;;;;;;15.02;9.93;;;;;;;8.20;95.51;95275.31;5047731;28;20041;-76
2022/04/25 05:01:19;;;;;;;16.67;10.13;;;;;;;8.16;95.07;95287.94;5046232;28;20068;-76
2022/04/25 05:03:46;;;;;;;15.50;10.35;;;;;;;8.20;95.57;95295.09;5048311;28;20041;-76
2022/04/25 05:06:14;;;;;;;14.90;9.77;;;;;;;8.29;95.39;95293.09;5046232;28;20519;-75
2022/04/25 05:08:41;;;;;;;17.35;10.00;;;;;;;8.32;95.06;95303.28;5048025;28;20053;-76
2022/04/25 05:11:09;;;;;;;15.48;9.18;;;;;;;8.42;94.68;95296.72;5046423;28;20049;-76
2022/04/25 05:13:36;;;;;;;14.30;9.65;;;;;;;8.49;94.05;95299.69;5047504;28;20051;-76
2022/04/25 05:16:03;;;;;;;16.77;9.07;;;;;;;8.50;93.62;95306.69;5046196;28;20106;-76
2022/04/25 05:18:32;;;;;;;15.13;9.60;;;;;;;8.59;93.47;95310.16;5046786;28;20055;-77
2022/04/25 05:21:01;;;;;;;14.52;9.98;;;;;;;8.61;93.22;95313.34;5047134;28;20584;-76
2022/04/25 05:23:29;;;;;;;17.27;10.13;;;;;;;8.54;92.51;95318.50;5046631;28;20068;-76
2022/04/25 05:25:56;;;;;;;17.40;10.95;;;;;;;8.59;92.90;95321.00;5047584;28;20052;-76
2022/04/25 05:28:24;;;;;;;16.13;10.25;;;;;;;8.67;92.30;95321.31;5046128;28;20491;-76
2022/04/25 05:30:51;;;;;;;16.50;10.70;;;;;;;8.69;91.47;95324.47;5046625;28;20118;-76
2022/04/25 05:33:18;;;;;;;15.30;10.23;;;;;;;8.61;90.90;95326.91;5045400;28;20548;-76
2022/04/25 05:35:46;;;;;;;17.58;12.07;;;;;;;8.68;91.07;95322.88;5046983;28;20049;-75
2022/04/25 05:38:12;;;;;;;19.17;11.77;;;;;;;8.71;91.67;95333.06;5046277;28;20052;-76
2022/04/25 05:40:42;;;;;;;18.42;12.38;;;;;;;8.72;90.63;95323.78;5045799;28;20071;-76
2022/04/25 05:43:09;;;;;;;18.98;12.38;;;;;;;8.63;90.05;95338.22;5046141;28;20424;-76
2022/04/25 05:45:36;;;;;;;18.25;12.35;;;;;;;8.66;89.83;95341.41;5045414;28;20103;-76
2022/04/25 05:51:58;;;;;;;20.25;13.40;;;;;;;8.76;90.29;95341.78;5044929;28;20051;-76
2022/04/25 05:53:36;;;;;;;21.40;13.07;;;;;;;8.97;91.53;95349.16;5046706;28;20552;-76
2022/04/25 05:56:04;;;;;;;20.42;13.23;;;;;;;9.11;90.21;95358.63;5046015;28;20049;-76
2022/04/25 05:58:31;;;;;;;19.73;13.20;;;;;;;9.05;88.74;95359.16;5046414;28;20052;-76
2022/04/25 06:00:57;;;;;;;20.60;13.23;;;;;;;9.13;89.17;95363.72;5046404;28;20064;-76
2022/04/25 06:03:24;;;;;;;21.08;13.60;;;;;;;9.06;88.32;95372.41;5045407;28;20044;-75
2022/04/25 06:05:50;;;;;;;20.92;14.00;;;;;;;9.03;89.64;95367.66;5046799;28;20060;-76
2022/04/25 06:08:17;;;;;;;22.30;14.25;;;;;;;9.08;89.99;95372.88;5044951;28;20051;-76
2022/04/25 06:10:45;;;;;;;21.40;13.93;;;;;;;9.15;88.88;95375.06;5045383;28;20045;-76
2022/04/25 06:13:14;;;;;;;25.77;15.80;;;;;;;9.22;88.72;95377.22;5045153;28;20057;-76
2022/04/25 06:15:41;;;;;;;22.58;14.15;;;;;;;9.25;89.01;95373.84;5045485;28;20507;-76
2022/04/25 06:18:07;;;;;;;20.75;13.82;;;;;;;9.22;87.91;95377.22;5044287;28;20423;-76
2022/04/25 06:20:35;;;;;;;24.52;15.90;;;;;;;9.22;88.45;95388.09;5045543;28;20048;-76
2022/04/25 06:23:02;;;;;;;23.85;15.25;;;;;;;9.30;87.76;95388.03;5046199;28;20147;-77
2022/04/25 06:25:30;;;;;;;24.05;15.52;;;;;;;9.37;87.04;95395.63;5045670;28;20095;-77
2022/04/25 06:27:58;;;;;;;25.33;15.40;;;;;;;9.48;86.91;95393.28;5046304;28;20050;-76
2022/04/25 06:30:28;;;;;;;24.00;15.77;;;;;;;9.54;86.90;95403.63;5045372;28;20110;-76
2022/04/25 06:32:56;;;;;;;27.27;17.85;;;;;;;9.62;87.78;95404.69;5047104;28;20471;-76
2022/04/25 06:35:25;;;;;;;23.55;15.55;;;;;;;9.56;86.76;95398.66;5045350;28;20049;-76
2022/04/25 06:37:52;;;;;;;24.10;15.57;;;;;;;9.55;85.87;95405.22;5047897;28;20140;-76
2022/04/25 06:40:21;;;;;;;23.33;16.02;;;;;;;9.52;85.26;95415.97;5049897;28;20059;-76
2022/04/25 06:42:49;;;;;;;27.83;17.52;;;;;;;9.56;85.57;95414.97;5050564;28;20047;-77
2022/04/25 06:45:16;;;;;;;25.13;16.63;;;;;;;9.49;85.88;95411.19;5045548;28;20048;-75
2022/04/25 06:47:44;;;;;;;25.88;16.85;;;;;;;9.50;85.95;95408.16;5027777;28;20460;-76
2022/04/25 06:50:11;;;;;;;26.48;17.23;;;;;;;9.41;86.16;95412.88;5025084;28;20061;-75
2022/04/25 06:52:38;;;;;;;24.73;17.02;;;;;;;9.30;86.63;95420.63;5024371;28;20049;-76
2022/04/25 06:55:05;;;;;;;25.13;16.50;;;;;;;9.23;85.41;95422.28;5025676;28;20076;-76
2022/04/25 06:57:33;;;;;;;27.17;17.75;;;;;;;9.24;86.12;95426.56;5025046;28;20394;-77
2022/04/25 07:00:00;;;;;;;25.67;16.90;;;;;;;9.33;86.35;95430.03;5025420;28;20566;-76
2022/04/25 07:02:26;;;;;;;29.00;17.60;;;;;;;9.31;86.97;95432.28;5024638;28;20048;-76
2022/04/25 07:04:54;;;;;;;26.80;17.02;;;;;;;9.27;86.63;95428.63;5025272;28;20053;-76
2022/04/25 07:07:21;;;;;;;24.75;17.38;;;;;;;9.28;87.15;95432.94;5024820;28;20508;-76
2022/04/25 07:09:48;;;;;;;27.13;17.58;;;;;;;9.28;86.95;95432.94;5024966;28;20053;-76
2022/04/25 07:12:14;;;;;;;22.63;16.30;;;;;;;9.25;86.04;95433.63;5022742;28;20049;-77
2022/04/25 07:14:41;;;;;;;25.48;17.02;;;;;;;9.24;84.96;95430.09;5023476;28;20041;-77
2022/04/25 07:17:07;;;;;;;28.77;18.15;;;;;;;9.26;86.16;95427.06;5022235;28;20049;-76
2022/04/25 07:19:39;;;;;;;26.25;17.67;;;;;;;9.30;87.04;95430.69;5023261;28;20476;-76
2022/04/25 07:30:21;;;;;;;27.58;17.67;;;;;;;9.52;86.92;95445.84;5023925;28;20075;-77
2022/04/25 07:32:47;;;;;;;23.10;15.90;;;;;;;9.60;85.46;95445.75;5023917;28;20048;-76
2022/04/25 07:35:14;;;;;;;23.30;15.60;;;;;;;9.62;83.97;95440.81;5023700;28;20436;-77
2022/04/25 07:37:42;;;;;;;22.48;15.80;;;;;;;9.68;83.43;95458.50;5024324;28;20048;-77
2022/04/25 07:40:09;;;;;;;19.65;13.95;;;;;;;9.77;81.63;95460.34;5023691;28;20047;-76
2022/04/25 07:42:36;;;;;;;23.70;15.73;;;;;;;9.89;81.93;95463.09;5024238;28;20052;-77
2022/04/25 07:45:03;;;;;;;24.45;15.45;;;;;;;10.04;82.58;95458.97;5023080;28;20068;-76
2022/04/25 07:47:31;;;;;;;25.73;15.80;;;;;;;10.33;81.36;95466.97;5032769;28;20048;-77
2022/04/25 07:50:01;;;;;;;21.13;14.05;;;;;;;10.41;78.20;95465.28;5044451;28;20045;-77
2022/04/25 07:52:28;;;;;;;23.65;13.75;;;;;;;10.54;77.37;95464.16;5044524;28;20048;-77
2022/04/25 07:54:56;;;;;;;19.85;13.88;;;;;;;10.57;78.67;95463.50;5045225;28;20049;-77
2022/04/25 07:57:23;;;;;;;21.55;14.23;;;;;;;10.57;77.73;95466.22;5045514;28;20048;-77
2022/04/25 07:59:49;;;;;;;21.33;13.60;;;;;;;10.45;76.29;95469.72;5044776;28;20056;-77
2022/04/25 08:02:17;;;;;;;21.10;13.45;;;;;;;10.33;76.90;95466.97;5044010;28;20053;-77
2022/04/25 08:04:44;;;;;;;21.92;14.32;;;;;;;10.28;77.32;95471.84;5044835;28;20053;-77
2022/04/25 08:07:11;;;;;;;22.52;14.52;;;;;;;10.23;77.50;95482.91;5043536;28;20468;-77
2022/04/25 08:09:38;;;;;;;19.33;13.80;;;;;;;10.33;77.16;95474.34;5043222;28;20060;-77
2022/04/25 08:20:19;;;;;;;20.60;14.35;;;;;;;10.51;77.51;95489.34;5046763;28;20059;-76
2022/04/25 08:22:45;;;;;;;19.33;13.77;;;;;;;10.59;76.83;95491.16;5044151;28;20080;-77
2022/04/25 08:25:12;;;;;;;20.38;12.93;;;;;;;10.66;75.90;95493.34;5043177;28;20530;-77
2022/04/25 08:27:42;;;;;;;17.15;11.18;;;;;;;10.71;74.67;95487.69;5044178;28;20045;-77
2022/04/25 08:30:11;;;;;;;12.05;9.00;;;;;;;10.64;69.36;95499.09;5043224;28;20140;-77
2022/04/25 08:32:38;;;;;;;14.10;10.35;;;;;;;10.62;71.44;95506.84;5047023;28;20037;-76
2022/04/25 08:35:05;;;;;;;16.23;11.75;;;;;;;10.57;72.61;95503.53;5048620;28;20064;-76
2022/04/25 08:37:32;;;;;;;18.15;12.10;;;;;;;10.63;72.93;95502.97;5058613;28;20056;-77
2022/04/25 08:39:58;;;;;;;14.45;11.32;;;;;;;10.50;73.03;95509.53;5050280;28;20079;-76
2022/04/25 08:42:29;;;;;;;15.90;11.30;;;;;;;10.52;73.15;95501.81;5048187;28;20542;-77
2022/04/25 08:45:01;;;;;;;17.55;12.50;;;;;;;10.53;73.24;95510.78;5049395;28;20496;-76
2022/04/25 08:47:30;;;;;;;18.40;13.68;;;;;;;10.54;73.59;95515.09;5048682;28;20085;-76
2022/04/25 08:49:58;;;;;;;16.13;12.23;;;;;;;10.58;74.48;95516.81;5049478;28;20053;-76
2022/04/25 08:52:27;;;;;;;18.15;12.30;;;;;;;10.61;74.22;95516.13;5047396;28;20052;-76
2022/04/25 08:54:56;;;;;;;16.15;11.25;;;;;;;10.68;73.81;95523.75;5048948;28;20063;-76
2022/04/25 08:57:24;;;;;;;13.57;9.90;;;;;;;10.93;71.43;95521.84;5046920;28;20044;-76
2022/04/25 08:59:52;;;;;;;14.65;11.07;;;;;;;11.24;69.29;95529.44;5048394;28;20049;-76
2022/04/25 09:02:22;;;;;;;17.88;10.98;;;;;;;11.57;69.31;95529.25;5051323;28;20064;-76
2022/04/25 09:04:49;;;;;;;16.13;10.23;;;;;;;11.71;67.73;95529.69;5053815;28;20041;-76
2022/04/25 09:07:16;;;;;;;14.68;10.82;;;;;;;11.92;68.82;95524.09;5050969;28;20048;-76
2022/04/25 09:09:43;;;;;;;14.40;10.90;;;;;;;12.30;67.56;95532.91;5053178;28;20051;-76
2022/04/25 09:12:12;;;;;;;11.57;9.65;;;;;;;12.68;66.86;95527.69;5048912;28;20051;-77
2022/04/25 09:14:40;;;;;;;12.27;8.77;;;;;;;12.74;64.61;95529.03;5049893;28;20049;-75
2022/04/25 09:17:07;;;;;;;12.60;9.45;;;;;;;12.75;65.22;95527.88;5048719;28;20053;-76
2022/04/25 09:19:36;;;;;;;14.07;9.68;;;;;;;12.69;64.93;95534.75;5048153;28;20049;-76
2022/04/25 09:22:03;;;;;;;11.13;9.32;;;;;;;12.65;63.70;95541.25;5048440;28;20052;-77
2022/04/25 09:24:32;;;;;;;13.73;10.38;;;;;;;12.62;62.45;95542.75;5051298;28;20064;-76
2022/04/25 09:27:11;;;;;;;11.32;9.10;;;;;;;12.57;62.13;95545.72;5051829;28;20056;-77
2022/04/25 09:29:39;;;;;;;18.00;9.93;;;;;;;12.46;61.72;95547.38;5051162;28;20037;-76
2022/04/25 09:32:09;;;;;;;12.90;9.80;;;;;;;12.39;60.56;95548.00;5048486;28;20051;-77
2022/04/25 09:37:41;;;;;;;12.93;9.65;;;;;;;12.69;64.12;95544.88;5046568;28;20068;-77
2022/04/25 09:40:08;;;;;;;14.45;9.73;;;;;;;13.01;61.07;95542.97;5047327;28;20389;-76
2022/04/25 09:42:36;;;;;;;12.80;9.80;;;;;;;13.30;60.31;95545.25;5047091;28;20052;-76
2022/04/25 09:45:04;;;;;;;17.88;12.57;;;;;;;13.24;63.29;95554.06;5047182;28;20064;-77
2022/04/25 09:47:32;;;;;;;20.90;13.25;;;;;;;13.04;64.68;95550.44;5048063;28;20044;-77
2022/04/25 09:50:02;;;;;;;17.17;13.50;;;;;;;12.76;64.67;95556.78;5048733;28;20053;-77
2022/04/25 09:52:29;;;;;;;19.33;14.25;;;;;;;12.56;66.77;95557.81;5047825;28;20045;-77
2022/04/25 09:54:58;;;;;;;17.35;13.68;;;;;;;12.43;67.81;95561.75;5047359;28;20045;-77
2022/04/25 09:57:31;;;;;;;21.25;14.35;;;;;;;12.56;69.68;95566.00;5048111;28;20048;-77
2022/04/25 09:59:58;;;;;;;16.23;13.55;;;;;;;12.83;65.91;95563.56;5046577;28;20698;-77
2022/04/25 10:02:24;;;;;;;18.80;12.82;;;;;;;13.13;65.67;95564.72;5045981;28;20114;-77
2022/04/25 10:04:51;;;;;;;16.42;12.75;;;;;;;13.25;65.73;95561.91;5046019;28;20049;-77
2022/04/25 10:07:22;;;;;;;485.98;311.38;;;;;;;13.39;64.63;95564.19;5045462;28;20642;-76
2022/04/25 10:09:52;;;;;;;52.63;16.63;;;;;;;13.45;63.51;95560.03;5018707;28;20096;-76
2022/04/25 10:12:19;;;;;;;646.70;401.60;;;;;;;13.25;63.46;95567.38;5044743;28;20053;-77
2022/04/25 10:14:47;;;;;;;622.53;370.50;;;;;;;13.35;62.33;95570.72;5045283;28;20045;-77
2022/04/25 10:17:15;;;;;;;354.25;248.65;;;;;;;13.36;61.80;95577.78;5044055;28;20052;-77
2022/04/25 10:19:43;;;;;;;621.13;381.65;;;;;;;13.60;61.64;95576.78;5034973;28;20056;-76
2022/04/25 10:22:10;;;;;;;175.82;67.70;;;;;;;13.58;61.51;95582.63;5045548;28;20057;-77
2022/04/25 10:24:40;;;;;;;341.75;208.85;;;;;;;13.67;62.20;95572.25;5046090;28;20048;-76
2022/04/25 10:27:11;;;;;;;189.35;102.15;;;;;;;13.60;60.40;95574.06;5044595;28;20526;-77
2022/04/25 10:29:43;;;;;;;52.17;14.73;;;;;;;13.49;62.80;95573.81;5046196;28;20052;-76
2022/04/25 10:32:11;;;;;;;87.45;35.47;;;;;;;13.38;61.83;95572.78;5045542;28;20060;-76
2022/04/25 10:34:46;;;;;;;77.60;41.25;;;;;;;13.54;63.80;95579.00;5045985;28;20056;-76
2022/04/25 10:37:31;;;;;;;19.70;10.75;;;;;;;13.60;59.62;95572.09;5048490;28;20123;-76
2022/04/25 10:40:00;;;;;;;67.72;25.83;;;;;;;13.63;60.17;95571.41;5050343;28;20056;-76
2022/04/25 10:45:10;;;;;;;76.28;35.05;;;;;;;13.73;59.41;95581.81;5044737;28;20676;-76
2022/04/25 10:47:37;;;;;;;59.17;12.52;;;;;;;13.83;59.57;95583.97;5046156;28;20045;-77
2022/04/25 10:50:09;;;;;;;30.63;12.52;;;;;;;13.86;59.57;95585.19;5045203;28;20059;-78
2022/04/25 10:52:55;;;;;;;316.08;221.77;;;;;;;13.91;56.15;95581.38;5045163;28;20040;-77
2022/04/25 10:55:30;;;;;;;37.28;12.07;;;;;;;13.77;56.94;95588.13;5045417;28;20053;-77
2022/04/25 10:58:24;;;;;;;63.20;22.42;;;;;;;13.90;59.41;95585.28;5036604;28;20045;-77
2022/04/25 11:00:55;;;;;;;53.92;12.93;;;;;;;13.86;54.29;95592.63;5044411;28;20037;-77
2022/04/25 11:03:24;;;;;;;42.13;12.15;;;;;;;14.29;58.10;95586.09;5044125;28;20049;-77
2022/04/25 11:05:52;;;;;;;13.43;10.68;;;;;;;14.46;53.20;95573.91;5044397;28;20064;-77
2022/04/25 11:08:27;;;;;;;55.53;27.83;;;;;;;14.64;54.50;95580.56;5044945;28;20630;-78
2022/04/25 11:11:02;;;;;;;59.80;13.18;;;;;;;14.99;56.19;95579.63;5043146;28;20045;-76
2022/04/25 11:13:31;;;;;;;52.50;11.90;;;;;;;15.33;55.23;95583.31;5046845;28;20403;-78
2022/04/25 11:15:58;;;;;;;33.30;11.68;;;;;;;15.54;50.56;95583.66;5028393;28;20064;-77
2022/04/25 11:18:30;;;;;;;369.52;307.45;;;;;;;15.56;53.51;95591.53;5024836;28;20041;-77
2022/04/25 11:20:58;;;;;;;13.32;10.50;;;;;;;15.51;52.30;95589.91;5024470;28;20061;-78
2022/04/25 11:23:29;;;;;;;53.47;12.55;;;;;;;15.31;51.43;95596.63;5024120;28;20052;-78
2022/04/25 11:25:56;;;;;;;56.13;13.48;;;;;;;15.33;52.57;95594.28;5025144;28;20059;-77
2022/04/25 11:28:25;;;;;;;45.67;12.27;;;;;;;15.39;52.29;95595.56;5027004;28;20060;-77
2022/04/25 11:31:20;;;;;;;49.88;12.35;;;;;;;15.30;54.24;95600.53;5025638;28;20068;-78
2022/04/25 11:33:48;;;;;;;38.05;10.05;;;;;;;15.69;53.27;95595.69;5024583;28;20065;-78
2022/04/25 11:36:15;;;;;;;32.30;12.85;;;;;;;15.68;51.68;95607.84;5024140;28;20057;-76
2022/04/25 11:41:29;;;;;;;13.85;10.13;;;;;;;15.29;54.43;95609.91;5023533;28;20052;-78
2022/04/25 11:43:57;;;;;;;44.45;11.65;;;;;;;15.04;51.97;95609.50;5025463;28;20052;-77
2022/04/25 11:46:24;;;;;;;48.53;11.15;;;;;;;14.95;53.31;95609.72;5025309;28;20076;-78
2022/04/25 11:48:51;;;;;;;50.58;10.23;;;;;;;14.97;54.75;95603.84;5045388;28;20053;-78
2022/04/25 11:51:24;;;;;;;17.23;9.32;;;;;;;15.34;55.06;95604.09;5043366;28;20060;-78
2022/04/25 11:53:52;;;;;;;47.17;11.73;;;;;;;15.80;57.47;95604.06;5045683;28;20103;-77
2022/04/25 11:56:19;;;;;;;45.13;10.75;;;;;;;16.06;52.76;95608.75;5044344;28;20045;-77
2022/04/25 11:58:46;;;;;;;48.67;10.40;;;;;;;15.98;50.83;95601.59;5044790;28;20045;-78
2022/04/25 12:01:13;;;;;;;48.00;10.98;;;;;;;15.93;50.73;95604.66;5044310;28;20045;-78
2022/04/25 12:03:40;;;;;;;33.50;9.50;;;;;;;16.04;52.69;95600.13;5044659;28;20048;-77